createdAt,value
2019-06-09T00:00:43.153Z,35.39
2019-06-09T00:03:18.582Z,36.30
2019-06-09T00:05:58.616Z,38.29
2019-06-09T00:08:32.016Z,39.55
2019-06-09T00:11:05.269Z,39.57
2019-06-09T00:13:37.511Z,38.43
2019-06-09T00:16:12.730Z,37.36
2019-06-09T00:18:48.479Z,36.76
2019-06-09T00:21:20.096Z,36.47
2019-06-09T00:23:53.009Z,37.24
2019-06-09T00:26:24.430Z,38.29
2019-06-09T00:28:58.064Z,39.44
2019-06-09T00:31:47.293Z,39.76
2019-06-09T00:34:12.600Z,39.58
2019-06-09T00:36:47.344Z,39.96
2019-06-09T00:39:19.371Z,39.78
2019-06-09T00:41:53.105Z,39.53
2019-06-09T00:44:27.756Z,39.74
2019-06-09T00:47:01.094Z,40.20
2019-06-09T00:49:34.710Z,40.70
2019-06-09T00:52:11.060Z,41.33
2019-06-09T00:54:43.549Z,41.12
2019-06-09T00:57:26.099Z,41.37
2019-06-09T00:59:51.432Z,41.46
2019-06-09T01:02:25.098Z,41.68
2019-06-09T01:04:59.942Z,42.15
2019-06-09T01:07:32.226Z,41.91
2019-06-09T01:10:05.950Z,41.94
2019-06-09T01:12:38.389Z,42.16
2019-06-09T01:15:29.731Z,42.44
2019-06-09T01:18:04.574Z,42.44
2019-06-09T01:20:37.454Z,42.51
2019-06-09T01:23:10.916Z,42.55
2019-06-09T01:25:47.410Z,42.58
2019-06-09T01:28:23.641Z,42.74
2019-06-09T01:30:58.578Z,42.64
2019-06-09T01:33:29.452Z,42.41
2019-06-09T01:36:05.330Z,42.33
2019-06-09T01:38:38.538Z,41.91
2019-06-09T01:41:14.565Z,41.68
2019-06-09T01:43:49.130Z,41.34
2019-06-09T01:46:32.883Z,41.23
2019-06-09T01:49:07.207Z,41.44
2019-06-09T01:51:41.547Z,41.71
2019-06-09T01:54:20.053Z,41.70
2019-06-09T01:56:49.436Z,41.91
2019-06-09T01:59:23.286Z,42.46
2019-06-09T02:01:57.734Z,42.62
2019-06-09T02:04:31.313Z,42.80
2019-06-09T02:07:07.292Z,42.54
2019-06-09T02:09:38.452Z,42.58
2019-06-09T02:12:12.474Z,42.94
2019-06-09T02:14:44.946Z,43.02
2019-06-09T02:17:17.955Z,43.06
2019-06-09T02:19:50.671Z,43.41
2019-06-09T02:22:24.573Z,43.86
2019-06-09T02:24:57.538Z,44.28
2019-06-09T02:27:30.809Z,44.43
2019-06-09T02:30:03.878Z,44.73
2019-06-09T02:33:02.316Z,45.12
2019-06-09T02:35:12.804Z,45.37
2019-06-09T02:37:47.158Z,45.51
2019-06-09T02:40:29.023Z,45.76
2019-06-09T02:43:01.987Z,45.75
2019-06-09T02:46:27.538Z,45.67
2019-06-09T02:48:58.804Z,46.00
2019-06-09T02:51:36.747Z,46.17
2019-06-09T02:54:06.722Z,46.23
2019-06-09T02:56:44.236Z,46.73
2019-06-09T02:59:16.036Z,47.38
2019-06-09T03:01:51.391Z,47.79
2019-06-09T03:04:31.981Z,47.76
2019-06-09T03:06:57.934Z,47.85
2019-06-09T03:09:34.573Z,48.59
2019-06-09T03:12:04.961Z,49.10
2019-06-09T03:14:42.722Z,49.54
2019-06-09T03:17:11.838Z,49.93
2019-06-09T03:19:47.189Z,50.63
2019-06-09T03:22:24.991Z,50.95
2019-06-09T03:24:57.115Z,51.45
2019-06-09T03:27:40.745Z,51.77
2019-06-09T03:30:15.630Z,51.62
2019-06-09T03:36:14.312Z,51.75
2019-06-09T03:38:25.069Z,51.74
2019-06-09T03:41:12.025Z,51.62
2019-06-09T03:43:46.609Z,51.67
2019-06-09T03:46:31.101Z,51.13
2019-06-09T03:49:02.860Z,51.51
2019-06-09T03:51:41.664Z,51.24
2019-06-09T03:54:12.838Z,51.42
2019-06-09T03:56:52.702Z,51.46
2019-06-09T03:59:31.807Z,51.23
2019-06-09T04:02:08.551Z,50.86
2019-06-09T04:04:45.470Z,51.12
2019-06-09T04:07:17.087Z,51.24
2019-06-09T04:09:52.794Z,50.77
2019-06-09T04:12:28.763Z,49.84
2019-06-09T04:15:02.409Z,49.07
2019-06-09T04:17:39.369Z,48.57
2019-06-09T04:20:11.770Z,47.76
2019-06-09T04:22:49.694Z,47.14
2019-06-09T04:25:52.023Z,46.35
2019-06-09T04:28:23.431Z,46.51
2019-06-09T04:30:54.942Z,46.17
2019-06-09T04:33:36.473Z,46.41
2019-06-09T04:36:21.569Z,46.18
2019-06-09T04:38:40.428Z,45.77
2019-06-09T04:41:12.279Z,46.11
2019-06-09T04:43:46.310Z,46.05
2019-06-09T04:46:21.833Z,45.79
2019-06-09T04:48:55.259Z,44.41
2019-06-09T04:51:33.041Z,42.99
2019-06-09T04:54:02.050Z,43.43
2019-06-09T04:56:40.866Z,43.44
2019-06-09T04:59:11.904Z,43.96
2019-06-09T05:01:47.745Z,44.43
2019-06-09T05:04:23.016Z,44.35
2019-06-09T05:07:10.287Z,44.22
2019-06-09T05:09:36.406Z,44.83
2019-06-09T05:12:08.619Z,44.80
2019-06-09T05:14:47.623Z,44.73
2019-06-09T05:17:17.402Z,45.17
2019-06-09T05:19:52.038Z,45.35
2019-06-09T05:22:23.712Z,45.63
2019-06-09T05:24:57.264Z,45.76
2019-06-09T05:27:35.627Z,44.90
2019-06-09T05:30:07.023Z,45.17
2019-06-09T05:32:44.037Z,45.95
2019-06-09T05:35:15.074Z,45.44
2019-06-09T05:37:47.716Z,44.98
2019-06-09T05:40:39.188Z,45.32
2019-06-09T05:43:18.137Z,45.46
2019-06-09T05:45:52.378Z,45.53
2019-06-09T05:48:24.874Z,45.22
2019-06-09T05:50:57.850Z,45.57
2019-06-09T05:53:33.665Z,45.56
2019-06-09T05:56:26.967Z,45.65
2019-06-09T05:59:00.881Z,45.76
2019-06-09T06:01:36.981Z,46.22
2019-06-09T06:04:10.927Z,46.04
2019-06-09T06:06:44.054Z,45.92
2019-06-09T06:09:15.765Z,45.30
2019-06-09T06:11:51.785Z,45.79
2019-06-09T06:14:25.750Z,45.98
2019-06-09T06:17:00.681Z,46.94
2019-06-09T06:19:34.763Z,46.33
2019-06-09T06:22:07.198Z,45.68
2019-06-09T06:24:42.147Z,45.84
2019-06-09T06:27:14.881Z,45.58
2019-06-09T06:29:51.153Z,45.87
2019-06-09T06:32:22.846Z,45.73
2019-06-09T06:34:54.869Z,45.67
2019-06-09T06:37:37.980Z,45.50
2019-06-09T06:40:02.071Z,45.70
2019-06-09T06:42:35.367Z,44.58
2019-06-09T06:45:08.001Z,44.59
2019-06-09T06:47:45.616Z,44.41
2019-06-09T06:50:44.333Z,44.19
2019-06-09T06:53:16.154Z,44.04
2019-06-09T06:55:51.403Z,43.17
2019-06-09T06:58:26.872Z,43.30
2019-06-09T07:01:00.750Z,44.34
2019-06-09T07:03:34.014Z,43.40
2019-06-09T07:06:24.092Z,43.83
2019-06-09T07:08:57.213Z,43.29
2019-06-09T07:11:31.636Z,43.29
2019-06-09T07:14:02.292Z,43.23
2019-06-09T07:16:36.098Z,44.01
2019-06-09T07:19:11.358Z,43.92
2019-06-09T07:21:45.704Z,43.75
2019-06-09T07:24:21.239Z,42.99
2019-06-09T07:27:04.646Z,43.72
2019-06-09T07:29:37.176Z,43.44
2019-06-09T07:32:11.219Z,42.76
2019-06-09T07:34:46.773Z,43.70
2019-06-09T07:37:21.704Z,42.60
2019-06-09T07:39:55.339Z,41.95
2019-06-09T07:42:31.183Z,41.29
2019-06-09T07:45:05.115Z,41.42
2019-06-09T07:47:38.316Z,41.32
2019-06-09T07:50:12.098Z,40.26
2019-06-09T07:53:02.495Z,39.83
2019-06-09T07:55:37.375Z,40.30
2019-06-09T07:58:11.720Z,40.56
2019-06-09T08:00:56.138Z,39.56
2019-06-09T08:03:27.420Z,39.35
2019-06-09T08:06:16.697Z,38.48
2019-06-09T08:08:56.729Z,39.75
2019-06-09T08:11:27.847Z,40.72
2019-06-09T08:14:01.099Z,41.09
2019-06-09T08:16:33.840Z,39.30
2019-06-09T08:19:11.627Z,40.15
2019-06-09T08:21:49.213Z,40.01
2019-06-09T08:25:10.826Z,39.71
2019-06-09T08:27:52.059Z,39.56
2019-06-09T08:30:43.277Z,38.94
2019-06-09T08:33:15.622Z,37.86
2019-06-09T08:35:49.988Z,37.37
2019-06-09T08:38:32.812Z,37.42
2019-06-09T08:41:12.034Z,37.15
2019-06-09T08:43:52.409Z,38.56
2019-06-09T08:46:41.370Z,40.06
2019-06-09T08:49:24.035Z,37.84
2019-06-09T08:52:10.813Z,38.75
2019-06-09T08:55:02.682Z,39.51
2019-06-09T08:57:56.735Z,39.60
2019-06-09T09:00:44.575Z,39.79
2019-06-09T09:03:31.258Z,37.36
2019-06-09T09:06:13.091Z,38.89
2019-06-09T09:09:20.862Z,40.53
2019-06-09T09:11:46.259Z,41.14
2019-06-09T09:14:34.582Z,42.04
2019-06-09T09:17:20.995Z,39.44
2019-06-09T09:20:11.486Z,40.52
2019-06-09T09:23:03.771Z,40.36
2019-06-09T09:25:54.876Z,41.27
2019-06-09T09:28:43.427Z,42.59
2019-06-09T09:31:32.874Z,39.72
2019-06-09T09:34:04.839Z,39.78
2019-06-09T09:36:36.056Z,40.61
2019-06-09T09:39:11.657Z,40.23
2019-06-09T09:41:47.112Z,39.46
2019-06-09T09:44:20.807Z,38.22
2019-06-09T09:46:57.036Z,37.95
2019-06-09T09:49:31.489Z,37.25
2019-06-09T09:52:04.274Z,35.05
2019-06-09T09:54:38.130Z,35.55
2019-06-09T09:57:13.776Z,35.93
2019-06-09T09:59:46.851Z,36.00
2019-06-09T10:02:22.000Z,37.85
2019-06-09T10:04:56.196Z,38.86
2019-06-09T10:07:31.716Z,37.98
2019-06-09T10:10:06.056Z,39.76
2019-06-09T10:12:40.560Z,39.75
2019-06-09T10:15:31.847Z,38.11
2019-06-09T10:18:02.992Z,38.68
2019-06-09T10:20:57.139Z,39.05
2019-06-09T10:23:31.282Z,38.38
2019-06-09T10:26:04.843Z,37.43
2019-06-09T10:28:41.806Z,36.70
2019-06-09T10:31:12.067Z,35.33
2019-06-09T10:33:47.798Z,33.90
2019-06-09T10:36:25.914Z,33.35
2019-06-09T10:39:05.761Z,33.67
2019-06-09T10:41:42.221Z,35.41
2019-06-09T10:44:15.120Z,34.55
2019-06-09T10:46:56.502Z,33.35
2019-06-09T10:49:24.108Z,35.59
2019-06-09T10:51:58.962Z,35.89
2019-06-09T10:54:31.590Z,35.10
2019-06-09T10:57:04.767Z,32.90
2019-06-09T10:59:37.267Z,32.68
2019-06-09T11:02:11.532Z,31.21
2019-06-09T11:04:46.118Z,32.27
2019-06-09T11:07:20.908Z,31.23
2019-06-09T11:09:53.980Z,32.35
2019-06-09T11:12:28.154Z,32.09
2019-06-09T11:15:04.077Z,33.43
2019-06-09T11:17:57.138Z,34.27
2019-06-09T11:20:55.843Z,34.05
2019-06-09T11:23:45.695Z,33.58
2019-06-09T11:26:30.780Z,37.43
2019-06-09T11:29:17.748Z,37.57
2019-06-09T11:31:51.891Z,36.45
2019-06-09T11:34:25.103Z,35.18
2019-06-09T11:36:58.670Z,32.85
2019-06-09T11:39:31.556Z,32.87
2019-06-09T11:42:05.407Z,35.04
2019-06-09T11:44:53.284Z,35.23
2019-06-09T11:47:31.645Z,33.75
2019-06-09T11:50:06.163Z,35.15
2019-06-09T11:52:40.840Z,34.27
2019-06-09T11:55:12.593Z,33.36
2019-06-09T11:58:06.116Z,33.98
2019-06-09T12:00:37.289Z,34.26
2019-06-09T12:03:09.858Z,33.70
2019-06-09T12:05:57.628Z,35.38
2019-06-09T12:08:32.751Z,35.70
2019-06-09T12:11:10.153Z,36.19
2019-06-09T12:13:44.412Z,36.45
2019-06-09T12:16:16.740Z,36.18
2019-06-09T12:18:51.267Z,34.37
2019-06-09T12:21:23.646Z,33.94
2019-06-09T12:23:56.667Z,32.09
2019-06-09T12:26:32.087Z,33.68
2019-06-09T12:29:08.308Z,35.67
2019-06-09T12:31:43.437Z,37.04
2019-06-09T12:34:21.182Z,37.12
2019-06-09T12:36:54.226Z,37.60
2019-06-09T12:39:25.584Z,37.58
2019-06-09T12:41:59.186Z,37.01
2019-06-09T12:44:32.836Z,36.47
2019-06-09T12:47:06.748Z,35.08
2019-06-09T12:49:40.677Z,35.92
2019-06-09T12:52:13.943Z,32.36
2019-06-09T12:54:48.851Z,31.36
2019-06-09T12:57:22.047Z,33.78
2019-06-09T12:59:55.952Z,34.00
2019-06-09T13:02:28.814Z,33.27
2019-06-09T13:05:04.291Z,31.92
2019-06-09T13:07:34.958Z,31.75
2019-06-09T13:10:35.926Z,34.58
2019-06-09T13:13:12.130Z,35.35
2019-06-09T13:15:43.073Z,34.68
2019-06-09T13:18:17.018Z,34.40
2019-06-09T13:20:52.797Z,34.60
2019-06-09T13:23:32.437Z,33.89
2019-06-09T13:26:14.409Z,31.68
2019-06-09T13:28:49.325Z,31.84
2019-06-09T13:31:24.308Z,33.40
2019-06-09T13:34:02.031Z,34.37
2019-06-09T13:36:42.830Z,33.70
2019-06-09T13:39:14.051Z,34.93
2019-06-09T13:41:47.089Z,33.92
2019-06-09T13:44:21.484Z,33.65
2019-06-09T13:46:53.060Z,32.35
2019-06-09T13:49:26.184Z,33.56
2019-06-09T13:52:04.657Z,33.58
2019-06-09T13:54:36.075Z,33.19
2019-06-09T13:57:12.054Z,34.35
2019-06-09T13:59:44.103Z,35.09
2019-06-09T14:02:17.284Z,34.72
2019-06-09T14:04:52.301Z,33.96
2019-06-09T14:07:24.455Z,33.53
2019-06-09T14:09:58.086Z,34.19
2019-06-09T14:12:33.161Z,34.94
2019-06-09T14:15:36.376Z,34.15
2019-06-09T14:18:13.955Z,34.86
2019-06-09T14:20:51.843Z,35.25
2019-06-09T14:23:25.109Z,36.33
2019-06-09T14:25:58.325Z,35.84
2019-06-09T14:28:33.591Z,34.69
2019-06-09T14:31:08.503Z,35.61
2019-06-09T14:33:42.055Z,33.78
2019-06-09T14:36:17.781Z,32.69
2019-06-09T14:38:51.823Z,32.84
2019-06-09T14:41:27.117Z,32.88
2019-06-09T14:44:00.822Z,32.41
2019-06-09T14:46:34.405Z,33.41
2019-06-09T14:49:07.842Z,33.00
2019-06-09T14:51:42.427Z,33.49
2019-06-09T14:54:18.291Z,33.39
2019-06-09T14:56:52.250Z,33.17
2019-06-09T14:59:24.544Z,33.06
2019-06-09T15:02:00.297Z,32.52
2019-06-09T15:04:32.687Z,31.28
2019-06-09T15:07:09.437Z,31.52
2019-06-09T15:09:43.611Z,30.57
2019-06-09T15:12:36.299Z,32.56
2019-06-09T15:14:52.618Z,32.22
2019-06-09T15:17:28.289Z,32.10
2019-06-09T15:20:00.933Z,31.49
2019-06-09T15:22:32.491Z,32.32
2019-06-09T15:25:06.298Z,30.62
2019-06-09T15:27:54.699Z,31.45
2019-06-09T15:30:30.501Z,32.05
2019-06-09T15:33:02.688Z,32.47
2019-06-09T15:35:34.738Z,32.96
2019-06-09T15:38:06.656Z,33.50
2019-06-09T15:40:39.088Z,34.25
2019-06-09T15:43:14.017Z,33.88
2019-06-09T15:45:45.695Z,34.21
2019-06-09T15:48:22.526Z,34.57
2019-06-09T15:50:57.545Z,35.03
2019-06-09T15:53:31.722Z,34.74
2019-06-09T15:56:03.767Z,35.21
2019-06-09T15:58:35.844Z,36.68
2019-06-09T16:01:11.111Z,37.03
2019-06-09T16:03:45.662Z,36.49
2019-06-09T16:06:22.093Z,35.75
2019-06-09T16:08:53.675Z,36.41
2019-06-09T16:11:27.177Z,35.86
2019-06-09T16:13:59.901Z,35.28
2019-06-09T16:16:32.896Z,34.90
2019-06-09T16:19:05.301Z,34.75
2019-06-09T16:21:37.826Z,34.49
2019-06-09T16:24:25.587Z,33.90
2019-06-09T16:26:46.736Z,33.45
2019-06-09T16:29:18.141Z,33.83
2019-06-09T16:31:53.889Z,34.53
2019-06-09T16:34:26.352Z,34.87
2019-06-09T16:37:01.167Z,34.79
2019-06-09T16:39:33.195Z,34.55
2019-06-09T16:42:06.700Z,33.21
2019-06-09T16:44:41.058Z,33.14
2019-06-09T16:47:13.090Z,33.35
2019-06-09T16:49:48.663Z,32.69
2019-06-09T16:52:26.409Z,32.51
2019-06-09T16:55:00.810Z,32.14
2019-06-09T16:57:34.281Z,33.54
2019-06-09T17:00:26.578Z,32.25
2019-06-09T17:02:58.326Z,32.51
2019-06-09T17:05:36.485Z,32.73
2019-06-09T17:08:27.426Z,32.24
2019-06-09T17:11:01.313Z,31.85
2019-06-09T17:13:52.209Z,31.71
2019-06-09T17:16:06.030Z,31.34
2019-06-09T17:18:41.275Z,31.72
2019-06-09T17:21:16.937Z,31.61
2019-06-09T17:23:50.802Z,32.87
2019-06-09T17:26:24.824Z,34.28
2019-06-09T17:28:57.176Z,33.91
2019-06-09T17:31:34.429Z,35.54
2019-06-09T17:34:04.870Z,36.56
2019-06-09T17:36:38.960Z,35.44
2019-06-09T17:39:12.478Z,34.80
2019-06-09T17:41:46.179Z,34.89
2019-06-09T17:44:22.544Z,35.22
2019-06-09T17:46:56.437Z,35.58
2019-06-09T17:49:32.245Z,37.42
2019-06-09T17:52:05.414Z,38.08
2019-06-09T17:54:37.498Z,37.29
2019-06-09T17:57:11.134Z,37.50
2019-06-09T17:59:47.331Z,37.61
2019-06-09T18:02:21.523Z,38.10
2019-06-09T18:04:57.441Z,38.28
2019-06-09T18:07:35.776Z,38.91
2019-06-09T18:10:34.986Z,39.25
2019-06-09T18:13:05.486Z,39.11
2019-06-09T18:15:56.310Z,38.73
2019-06-09T18:18:11.697Z,38.49
2019-06-09T18:20:45.104Z,38.54
2019-06-09T18:23:21.159Z,38.22
2019-06-09T18:25:51.744Z,38.08
2019-06-09T18:28:25.416Z,38.26
2019-06-09T18:31:01.425Z,39.12
2019-06-09T18:33:38.681Z,39.07
2019-06-09T18:36:07.634Z,39.17
2019-06-09T18:38:41.773Z,38.73
2019-06-09T18:41:14.404Z,38.49
2019-06-09T18:43:46.862Z,38.63
2019-06-09T18:46:20.648Z,38.85
2019-06-09T18:48:53.811Z,38.83
2019-06-09T18:51:26.213Z,38.73
2019-06-09T18:54:00.808Z,38.98
2019-06-09T18:56:36.956Z,39.59
2019-06-09T18:59:10.926Z,39.82
2019-06-09T19:01:42.688Z,39.99
2019-06-09T19:04:16.598Z,40.37
2019-06-09T19:06:48.670Z,40.72
2019-06-09T19:09:21.695Z,41.18
2019-06-09T19:11:54.635Z,41.67
2019-06-09T19:14:27.980Z,42.32
2019-06-09T19:17:00.793Z,42.38
2019-06-09T19:19:35.694Z,42.22
2019-06-09T19:22:10.877Z,42.17
2019-06-09T19:24:43.862Z,42.74
2019-06-09T19:27:16.923Z,42.77
2019-06-09T19:29:49.845Z,43.17
2019-06-09T19:32:22.015Z,42.97
2019-06-09T19:34:54.750Z,42.96
2019-06-09T19:37:30.137Z,43.54
2019-06-09T19:40:03.048Z,46.52
2019-06-09T19:42:36.773Z,47.52
2019-06-09T19:45:33.336Z,47.50
2019-06-09T19:48:07.034Z,46.35
2019-06-09T19:50:44.084Z,45.65
2019-06-09T19:53:15.506Z,46.32
2019-06-09T19:55:47.057Z,47.91
2019-06-09T19:58:22.067Z,47.00
2019-06-09T20:01:03.105Z,46.79
2019-06-09T20:03:34.997Z,46.15
2019-06-09T20:06:10.628Z,46.18
2019-06-09T20:08:45.039Z,45.92
2019-06-09T20:11:22.706Z,46.66
2019-06-09T20:13:56.100Z,46.41
2019-06-09T20:16:31.604Z,45.99
2019-06-09T20:19:04.513Z,46.15
2019-06-09T20:21:35.984Z,46.11
2019-06-09T20:24:07.165Z,46.43
2019-06-09T20:26:46.684Z,46.89
2019-06-09T20:29:14.418Z,46.68
2019-06-09T20:31:48.721Z,46.94
2019-06-09T20:34:22.454Z,47.12
2019-06-09T20:36:56.846Z,47.81
2019-06-09T20:39:37.028Z,47.99
2019-06-09T20:42:02.383Z,48.60
2019-06-09T20:44:35.323Z,49.16
2019-06-09T20:47:10.715Z,49.13
2019-06-09T20:49:46.809Z,49.81
2019-06-09T20:52:18.300Z,50.44
2019-06-09T20:54:52.569Z,50.51
2019-06-09T20:57:25.180Z,51.93
2019-06-09T21:00:00.639Z,51.28
2019-06-09T21:02:31.473Z,51.56
2019-06-09T21:05:05.749Z,52.88
2019-06-09T21:07:53.871Z,54.27
2019-06-09T21:10:35.641Z,56.02
2019-06-09T21:13:08.248Z,56.18
2019-06-09T21:15:42.897Z,56.52
2019-06-09T21:18:14.979Z,56.95
2019-06-09T21:20:53.535Z,56.73
2019-06-09T21:23:23.340Z,56.61
2019-06-09T21:25:56.058Z,54.97
2019-06-09T21:28:31.661Z,54.07
2019-06-09T21:31:06.594Z,55.07
2019-06-09T21:33:45.022Z,55.71
2019-06-09T21:36:21.074Z,56.94
2019-06-09T21:38:53.567Z,57.30
2019-06-09T21:41:31.139Z,57.59
2019-06-09T21:44:02.180Z,58.15
2019-06-09T21:46:36.387Z,57.90
2019-06-09T21:49:11.576Z,56.99
2019-06-09T21:51:44.412Z,55.64
2019-06-09T21:54:17.741Z,54.99
2019-06-09T21:56:54.113Z,54.04
2019-06-09T21:59:27.431Z,53.81
2019-06-09T22:02:03.644Z,52.93
2019-06-09T22:04:35.210Z,52.87
2019-06-09T22:07:06.532Z,52.74
2019-06-09T22:09:37.792Z,52.87
2019-06-09T22:12:11.299Z,53.25
2019-06-09T22:14:48.163Z,54.73
2019-06-09T22:17:21.472Z,55.11
2019-06-09T22:19:55.470Z,56.10
2019-06-09T22:22:26.600Z,55.15
2019-06-09T22:25:00.892Z,55.27
2019-06-09T22:27:35.576Z,55.02
2019-06-09T22:30:33.902Z,55.12
2019-06-09T22:33:05.833Z,55.03
2019-06-09T22:35:41.033Z,56.18
2019-06-09T22:38:16.547Z,55.83
2019-06-09T22:40:51.541Z,55.44
2019-06-09T22:43:25.009Z,55.02
2019-06-09T22:45:56.762Z,54.93
2019-06-09T22:48:31.544Z,54.66
2019-06-09T22:51:04.581Z,54.51
2019-06-09T22:53:41.523Z,54.85
2019-06-09T22:56:14.770Z,54.71
2019-06-09T22:58:47.584Z,55.35
2019-06-09T23:01:21.210Z,56.31
2019-06-09T23:03:54.121Z,56.91
2019-06-09T23:06:26.871Z,57.58
2019-06-09T23:09:02.432Z,57.06
2019-06-09T23:11:36.865Z,57.09
2019-06-09T23:14:10.845Z,58.21
2019-06-09T23:16:42.044Z,58.49
2019-06-09T23:19:17.901Z,59.54
2019-06-09T23:21:54.387Z,60.43
2019-06-09T23:24:27.182Z,61.60
2019-06-09T23:27:02.885Z,62.35
2019-06-09T23:29:35.024Z,62.54
2019-06-09T23:32:11.190Z,62.40
2019-06-09T23:34:58.883Z,62.27
2019-06-09T23:37:31.607Z,62.64
2019-06-09T23:40:05.035Z,62.48
2019-06-09T23:42:41.284Z,61.27
2019-06-09T23:45:31.461Z,60.34
2019-06-09T23:48:05.074Z,59.33
2019-06-09T23:50:40.978Z,59.26
2019-06-09T23:53:12.185Z,59.14
2019-06-09T23:55:47.926Z,57.05
2019-06-09T23:58:21.785Z,56.78
